Time;durP1;ratioP1;P1;durP2;ratioP2;P2;SDS_P1;SDS_P2;PMS_P1;PMS_P2;Temp;Humidity;BMP_temperature;BMP_pressure;BME280_temperature;BME280_humidity;BME280_pressure;Samples;Min_cycle;Max_cycle;Signal;HPM_P1;HPM_P2
2022/03/01 00:00:32;;;;;;;13.45;11.35;;;;;;;;;;5051203;28;20399;-58
2022/03/01 00:02:57;;;;;;;14.90;10.05;;;;;;;;;;5049196;28;20129;-58
2022/03/01 00:05:23;;;;;;;12.63;9.55;;;;;;;;;;5051171;28;20025;-58
2022/03/01 00:07:48;;;;;;;11.47;9.97;;;;;;;;;;5049541;28;20400;-58
2022/03/01 00:10:13;;;;;;;13.07;11.20;;;;;;;;;;5050731;28;20024;-58
2022/03/01 00:12:38;;;;;;;13.73;11.83;;;;;;;;;;5049390;28;20033;-58
2022/03/01 00:15:04;;;;;;;15.73;10.85;;;;;;;;;;5047843;28;20021;-58
2022/03/01 00:17:29;;;;;;;16.65;11.55;;;;;;;;;;5031010;28;20123;-58
2022/03/01 00:19:54;;;;;;;15.30;10.67;;;;;;;;;;5031133;28;20039;-58
2022/03/01 00:22:20;;;;;;;12.73;10.03;;;;;;;;;;5041568;28;20513;-58
2022/03/01 00:24:45;;;;;;;14.90;10.30;;;;;;;;;;5051386;28;20763;-58
2022/03/01 00:27:10;;;;;;;18.90;10.57;;;;;;;;;;5049114;28;20096;-58
2022/03/01 00:29:35;;;;;;;14.35;10.15;;;;;;;;;;5050975;28;20048;-58
2022/03/01 00:32:00;;;;;;;12.48;9.60;;;;;;;;;;5048681;28;20030;-58
2022/03/01 00:34:25;;;;;;;12.10;9.40;;;;;;;;;;5051003;28;20029;-58
2022/03/01 00:36:51;;;;;;;15.20;12.67;;;;;;;;;;5039524;28;20033;-58
2022/03/01 00:39:16;;;;;;;13.77;10.23;;;;;;;;;;5030993;28;21094;-58
2022/03/01 00:41:41;;;;;;;16.95;12.35;;;;;;;;;;5029505;28;20038;-58
2022/03/01 00:44:06;;;;;;;14.57;10.40;;;;;;;;;;5046200;28;20104;-58
2022/03/01 00:46:31;;;;;;;19.53;11.60;;;;;;;;;;5029697;28;20026;-58
2022/03/01 00:48:57;;;;;;;16.20;10.77;;;;;;;;;;5044311;28;20021;-58
2022/03/01 00:51:23;;;;;;;15.05;11.15;;;;;;;;;;5048920;28;20066;-57
2022/03/01 00:53:48;;;;;;;12.25;10.95;;;;;;;;;;5051233;28;20079;-58
2022/03/01 00:56:13;;;;;;;18.80;12.07;;;;;;;;;;5050507;28;20025;-58
2022/03/01 00:58:38;;;;;;;12.90;11.40;;;;;;;;;;5049239;28;20510;-58
2022/03/01 01:01:04;;;;;;;17.27;12.70;;;;;;;;;;5037134;28;20489;-58
2022/03/01 01:03:29;;;;;;;12.55;10.18;;;;;;;;;;5029078;28;20448;-58
2022/03/01 01:05:54;;;;;;;16.30;10.90;;;;;;;;;;5030756;28;20022;-58
2022/03/01 01:08:19;;;;;;;16.52;13.10;;;;;;;;;;5029267;28;20476;-58
2022/03/01 01:10:45;;;;;;;14.25;12.10;;;;;;;;;;5030762;28;20028;-58
2022/03/01 01:13:12;;;;;;;15.77;13.38;;;;;;;;;;5029131;28;20125;-58
2022/03/01 01:15:37;;;;;;;15.70;12.35;;;;;;;;;;5030842;28;20148;-58
2022/03/01 01:18:02;;;;;;;21.60;13.13;;;;;;;;;;5028809;28;20130;-59
2022/03/01 01:20:27;;;;;;;16.03;11.83;;;;;;;;;;5031101;28;20048;-58
2022/03/01 01:22:52;;;;;;;12.83;10.37;;;;;;;;;;5029009;28;20056;-58
2022/03/01 01:25:24;;;;;;;19.30;12.03;;;;;;;;;;5030594;28;20424;-58
2022/03/01 01:27:51;;;;;;;24.25;13.57;;;;;;;;;;5029139;28;20464;-58
2022/03/01 01:30:17;;;;;;;13.70;12.15;;;;;;;;;;5030234;28;20621;-58
2022/03/01 01:32:43;;;;;;;17.48;13.00;;;;;;;;;;5028928;28;20103;-58
2022/03/01 01:35:09;;;;;;;16.67;10.98;;;;;;;;;;5030652;28;20022;-58
2022/03/01 01:37:34;;;;;;;18.15;12.52;;;;;;;;;;5029257;28;20045;-58
2022/03/01 01:40:00;;;;;;;17.73;12.40;;;;;;;;;;5030325;28;20017;-58
2022/03/01 01:42:25;;;;;;;16.67;11.73;;;;;;;;;;5028757;28;20038;-58
2022/03/01 01:44:50;;;;;;;15.67;13.80;;;;;;;;;;5048630;28;20025;-58
2022/03/01 01:47:15;;;;;;;15.97;10.40;;;;;;;;;;5052005;28;20846;-58
2022/03/01 01:49:40;;;;;;;17.85;11.88;;;;;;;;;;5053949;28;20542;-58
2022/03/01 01:52:06;;;;;;;16.35;12.10;;;;;;;;;;5052570;28;20033;-58
2022/03/01 01:54:31;;;;;;;19.77;12.95;;;;;;;;;;5053793;28;20025;-58
2022/03/01 01:56:56;;;;;;;19.25;12.75;;;;;;;;;;5051718;28;20040;-58
2022/03/01 01:59:21;;;;;;;12.18;10.43;;;;;;;;;;5053962;28;20578;-58
2022/03/01 02:01:47;;;;;;;18.08;11.43;;;;;;;;;;5052357;28;20040;-58
2022/03/01 02:04:12;;;;;;;16.27;12.60;;;;;;;;;;5053538;28;20167;-58
2022/03/01 02:06:48;;;;;;;20.75;13.80;;;;;;;;;;5052166;28;20463;-58
2022/03/01 02:09:13;;;;;;;12.80;10.68;;;;;;;;;;5052988;28;20380;-58
2022/03/01 02:11:38;;;;;;;21.23;11.98;;;;;;;;;;5051756;28;20037;-58
2022/03/01 02:14:03;;;;;;;14.40;11.63;;;;;;;;;;5053219;28;20017;-58
2022/03/01 02:16:28;;;;;;;15.88;12.23;;;;;;;;;;5052434;28;20013;-58
2022/03/01 02:18:54;;;;;;;18.47;11.97;;;;;;;;;;5052951;28;20048;-58
2022/03/01 02:21:19;;;;;;;16.00;12.52;;;;;;;;;;5050579;28;20013;-57
2022/03/01 02:23:44;;;;;;;15.13;12.52;;;;;;;;;;5053349;28;20435;-58
2022/03/01 02:26:10;;;;;;;15.90;11.45;;;;;;;;;;5052887;28;20035;-58
2022/03/01 02:28:35;;;;;;;15.15;11.93;;;;;;;;;;5051711;28;20048;-58
2022/03/01 02:31:00;;;;;;;15.45;12.65;;;;;;;;;;5053186;28;20029;-58
2022/03/01 02:33:25;;;;;;;15.70;12.40;;;;;;;;;;5038637;28;20038;-58
2022/03/01 02:35:50;;;;;;;22.30;13.35;;;;;;;;;;5033621;28;20068;-58
2022/03/01 02:38:15;;;;;;;16.75;12.05;;;;;;;;;;5031602;28;20041;-58
2022/03/01 02:40:40;;;;;;;19.33;12.87;;;;;;;;;;5033012;28;20101;-58
2022/03/01 02:43:07;;;;;;;18.53;14.30;;;;;;;;;;5031497;28;20455;-58
2022/03/01 02:45:32;;;;;;;32.28;13.23;;;;;;;;;;5033428;28;20022;-58
2022/03/01 02:47:57;;;;;;;17.33;13.77;;;;;;;;;;5030964;28;20056;-58
2022/03/01 02:50:22;;;;;;;20.10;13.93;;;;;;;;;;5033330;28;20045;-58
2022/03/01 02:52:47;;;;;;;16.53;13.07;;;;;;;;;;5031561;28;20784;-58
2022/03/01 02:55:13;;;;;;;19.08;13.68;;;;;;;;;;5031748;28;20079;-58
2022/03/01 02:57:38;;;;;;;17.80;12.45;;;;;;;;;;5031254;28;20036;-58
2022/03/01 03:00:05;;;;;;;18.02;13.05;;;;;;;;;;5032660;28;20025;-58
2022/03/01 03:02:30;;;;;;;19.50;13.55;;;;;;;;;;5031156;28;20048;-58
2022/03/01 03:04:56;;;;;;;19.17;13.87;;;;;;;;;;5032613;28;20022;-58
2022/03/01 03:07:21;;;;;;;15.90;11.93;;;;;;;;;;5031198;28;20547;-58
2022/03/01 03:09:46;;;;;;;16.85;13.27;;;;;;;;;;5032204;28;20017;-58
2022/03/01 03:12:11;;;;;;;17.70;14.37;;;;;;;;;;5031175;28;20085;-58
2022/03/01 03:14:36;;;;;;;15.82;11.55;;;;;;;;;;5032675;28;20401;-58
2022/03/01 03:17:02;;;;;;;20.48;15.95;;;;;;;;;;5032781;28;20079;-58
2022/03/01 03:19:27;;;;;;;18.35;13.80;;;;;;;;;;5052762;28;20021;-58
2022/03/01 03:21:52;;;;;;;35.03;13.57;;;;;;;;;;5050927;28;20048;-59
2022/03/01 03:24:18;;;;;;;19.40;14.10;;;;;;;;;;5051584;28;20182;-58
2022/03/01 03:26:43;;;;;;;16.10;11.93;;;;;;;;;;5041878;28;20042;-58
2022/03/01 03:29:09;;;;;;;16.50;13.05;;;;;;;;;;5031988;28;20022;-58
2022/03/01 03:31:38;;;;;;;25.63;14.15;;;;;;;;;;5030697;28;20023;-58
2022/03/01 03:34:04;;;;;;;18.45;13.52;;;;;;;;;;5032110;28;20079;-58
2022/03/01 03:36:30;;;;;;;18.08;13.45;;;;;;;;;;5030972;28;20578;-58
2022/03/01 03:38:55;;;;;;;21.90;13.05;;;;;;;;;;5031704;28;20021;-58
2022/03/01 03:41:20;;;;;;;19.55;13.25;;;;;;;;;;5037878;28;20630;-58
2022/03/01 03:43:46;;;;;;;17.25;13.70;;;;;;;;;;5051948;28;20480;-58
2022/03/01 03:46:11;;;;;;;19.87;14.27;;;;;;;;;;5051583;28;20017;-58
2022/03/01 03:48:36;;;;;;;17.17;14.05;;;;;;;;;;5050131;28;20815;-58
2022/03/01 03:51:01;;;;;;;20.60;15.10;;;;;;;;;;5051797;28;20082;-58
2022/03/01 03:53:27;;;;;;;19.38;14.15;;;;;;;;;;5049936;28;20033;-58
2022/03/01 03:55:53;;;;;;;20.65;12.45;;;;;;;;;;5051132;28;20021;-59
2022/03/01 03:58:18;;;;;;;19.37;14.47;;;;;;;;;;5050113;28;20033;-58
2022/03/01 04:00:43;;;;;;;19.88;12.20;;;;;;;;;;5051367;28;20966;-58
2022/03/01 04:03:08;;;;;;;18.50;14.02;;;;;;;;;;5049985;28;20511;-59
2022/03/01 04:05:34;;;;;;;22.05;15.45;;;;;;;;;;5051585;28;20025;-59
2022/03/01 04:08:00;;;;;;;22.38;14.40;;;;;;;;;;5049276;28;20515;-58
2022/03/01 04:10:25;;;;;;;17.83;13.48;;;;;;;;;;5051439;28;20045;-58
2022/03/01 04:12:51;;;;;;;17.70;14.13;;;;;;;;;;5049712;28;20032;-58
2022/03/01 04:15:16;;;;;;;18.30;14.05;;;;;;;;;;5050911;28;20458;-57
2022/03/01 04:17:41;;;;;;;19.73;15.03;;;;;;;;;;5049975;28;20037;-59
2022/03/01 04:20:06;;;;;;;24.75;15.63;;;;;;;;;;5051407;28;20434;-58
2022/03/01 04:22:32;;;;;;;22.70;15.75;;;;;;;;;;5049441;28;20052;-58
2022/03/01 04:24:57;;;;;;;26.33;18.38;;;;;;;;;;5046594;28;20128;-58
2022/03/01 04:27:22;;;;;;;21.83;14.98;;;;;;;;;;5029978;28;20488;-58
2022/03/01 04:29:47;;;;;;;27.63;16.25;;;;;;;;;;5031127;28;20025;-58
2022/03/01 04:32:13;;;;;;;24.07;15.33;;;;;;;;;;5029704;28;20033;-58
2022/03/01 04:34:39;;;;;;;23.48;15.25;;;;;;;;;;5031289;28;20416;-58
2022/03/01 04:37:04;;;;;;;23.20;18.33;;;;;;;;;;5029690;28;20041;-58
2022/03/01 04:39:30;;;;;;;26.55;15.48;;;;;;;;;;5033221;28;20025;-58
2022/03/01 04:41:55;;;;;;;22.42;16.40;;;;;;;;;;5049636;28;20040;-58
2022/03/01 04:44:20;;;;;;;17.20;14.00;;;;;;;;;;5051124;28;20369;-58
2022/03/01 04:46:45;;;;;;;21.07;15.10;;;;;;;;;;5048957;28;20071;-58
2022/03/01 04:49:11;;;;;;;18.58;14.57;;;;;;;;;;5050958;28;20415;-58
2022/03/01 04:51:36;;;;;;;21.98;15.45;;;;;;;;;;5049978;28;20461;-58
2022/03/01 04:54:01;;;;;;;27.48;15.32;;;;;;;;;;5049732;28;20531;-58
2022/03/01 04:56:26;;;;;;;24.45;18.48;;;;;;;;;;5048180;28;20029;-58
2022/03/01 04:58:52;;;;;;;19.37;15.67;;;;;;;;;;5051229;28;20020;-58
2022/03/01 05:01:17;;;;;;;20.95;15.57;;;;;;;;;;5048882;28;20423;-58
2022/03/01 05:03:42;;;;;;;22.80;15.05;;;;;;;;;;5050943;28;20380;-58
2022/03/01 05:06:08;;;;;;;19.00;14.30;;;;;;;;;;5048796;28;20155;-58
2022/03/01 05:08:33;;;;;;;16.87;13.47;;;;;;;;;;5048813;28;20396;-58
2022/03/01 05:10:58;;;;;;;24.37;14.80;;;;;;;;;;5050696;28;20505;-58
2022/03/01 05:13:23;;;;;;;23.48;16.45;;;;;;;;;;5034671;28;20416;-58
2022/03/01 05:15:48;;;;;;;22.70;15.67;;;;;;;;;;5030720;28;20151;-58
2022/03/01 05:18:14;;;;;;;17.92;13.35;;;;;;;;;;5030609;28;20803;-57
2022/03/01 05:20:39;;;;;;;23.17;14.10;;;;;;;;;;5035233;28;20052;-58
2022/03/01 05:23:04;;;;;;;20.23;15.68;;;;;;;;;;5046620;28;20554;-58
2022/03/01 05:25:29;;;;;;;21.20;15.63;;;;;;;;;;5054352;28;20059;-58
2022/03/01 05:27:54;;;;;;;17.40;12.90;;;;;;;;;;5051417;28;20033;-58
2022/03/01 05:30:20;;;;;;;20.27;14.77;;;;;;;;;;5034256;28;20017;-58
2022/03/01 05:32:46;;;;;;;19.63;14.57;;;;;;;;;;5033111;28;20476;-58
2022/03/01 05:35:14;;;;;;;20.40;15.27;;;;;;;;;;5034376;28;20018;-58
2022/03/01 05:37:40;;;;;;;19.15;14.13;;;;;;;;;;5036517;28;20390;-58
2022/03/01 05:40:06;;;;;;;18.92;12.75;;;;;;;;;;5036036;28;20342;-58
2022/03/01 05:42:32;;;;;;;18.13;14.23;;;;;;;;;;5032885;28;20071;-58
2022/03/01 05:44:57;;;;;;;21.85;17.10;;;;;;;;;;5033970;28;20105;-58
2022/03/01 05:47:22;;;;;;;16.40;11.90;;;;;;;;;;5032869;28;20037;-58
2022/03/01 05:49:48;;;;;;;19.25;13.57;;;;;;;;;;5034309;28;20412;-58
2022/03/01 05:52:13;;;;;;;20.67;14.73;;;;;;;;;;5032122;28;20389;-58
2022/03/01 05:54:38;;;;;;;29.13;14.67;;;;;;;;;;5040033;28;20017;-58
2022/03/01 05:57:03;;;;;;;19.90;13.52;;;;;;;;;;5051709;28;20536;-58
2022/03/01 05:59:28;;;;;;;21.10;13.23;;;;;;;;;;5052980;28;20017;-58
2022/03/01 06:01:54;;;;;;;19.95;13.02;;;;;;;;;;5051768;28;20454;-58
2022/03/01 06:04:19;;;;;;;18.75;14.20;;;;;;;;;;5053611;28;20423;-58
2022/03/01 06:06:44;;;;;;;18.77;14.27;;;;;;;;;;5052041;28;20043;-58
2022/03/01 06:09:09;;;;;;;18.50;14.00;;;;;;;;;;5053773;28;20431;-58
2022/03/01 06:11:34;;;;;;;16.25;13.32;;;;;;;;;;5052519;28;20013;-58
2022/03/01 06:13:59;;;;;;;16.38;14.25;;;;;;;;;;5053036;28;20029;-58
2022/03/01 06:16:25;;;;;;;23.93;13.63;;;;;;;;;;5052281;28;20044;-58
2022/03/01 06:18:50;;;;;;;21.13;14.60;;;;;;;;;;5053671;28;20024;-58
2022/03/01 06:21:15;;;;;;;35.45;15.75;;;;;;;;;;5052958;28;20398;-58
2022/03/01 06:23:40;;;;;;;22.90;14.70;;;;;;;;;;5051975;28;20053;-58
2022/03/01 06:26:06;;;;;;;20.77;14.00;;;;;;;;;;5053299;28;20048;-58
2022/03/01 06:28:31;;;;;;;19.85;13.90;;;;;;;;;;5051526;28;20463;-58
2022/03/01 06:30:56;;;;;;;15.98;13.25;;;;;;;;;;5052144;28;20020;-58
2022/03/01 06:33:21;;;;;;;18.23;14.85;;;;;;;;;;5051468;28;20055;-58
2022/03/01 06:35:47;;;;;;;24.03;15.13;;;;;;;;;;5052730;28;20380;-58
2022/03/01 06:38:12;;;;;;;16.65;14.02;;;;;;;;;;5051076;28;20506;-58
2022/03/01 06:40:37;;;;;;;23.17;15.63;;;;;;;;;;5052757;28;20098;-57
2022/03/01 06:43:03;;;;;;;22.55;15.40;;;;;;;;;;5050477;28;20037;-58
2022/03/01 06:45:28;;;;;;;19.50;14.95;;;;;;;;;;5052751;28;20491;-57
2022/03/01 06:47:53;;;;;;;17.20;12.88;;;;;;;;;;5050967;28;20115;-58
2022/03/01 06:50:18;;;;;;;19.90;16.63;;;;;;;;;;5052378;28;20100;-57
2022/03/01 06:52:44;;;;;;;30.83;17.67;;;;;;;;;;5050777;28;20447;-58
2022/03/01 06:55:09;;;;;;;20.15;13.93;;;;;;;;;;5052255;28;20019;-58
2022/03/01 06:57:37;;;;;;;19.50;14.90;;;;;;;;;;5051543;28;20035;-57
2022/03/01 07:00:02;;;;;;;17.60;14.48;;;;;;;;;;5052004;28;20023;-57
2022/03/01 07:02:28;;;;;;;19.02;14.63;;;;;;;;;;5050829;28;20033;-57
2022/03/01 07:04:57;;;;;;;16.33;13.05;;;;;;;;;;5052639;28;20017;-58
2022/03/01 07:07:22;;;;;;;19.75;12.75;;;;;;;;;;5050963;28;20029;-57
2022/03/01 07:09:48;;;;;;;18.70;14.48;;;;;;;;;;5052752;28;20104;-57
2022/03/01 07:12:13;;;;;;;16.40;12.93;;;;;;;;;;5050911;28;20068;-57
2022/03/01 07:14:38;;;;;;;24.63;15.25;;;;;;;;;;5052248;28;20444;-58
2022/03/01 07:17:03;;;;;;;21.57;14.40;;;;;;;;;;5051035;28;20147;-58
2022/03/01 07:19:28;;;;;;;16.98;12.73;;;;;;;;;;5052501;28;20771;-57
2022/03/01 07:21:53;;;;;;;26.70;14.40;;;;;;;;;;5050427;28;20040;-58
2022/03/01 07:24:18;;;;;;;22.42;15.70;;;;;;;;;;5052289;28;20120;-58
2022/03/01 07:26:44;;;;;;;19.97;15.40;;;;;;;;;;5050114;28;20531;-57
2022/03/01 07:29:09;;;;;;;28.13;17.10;;;;;;;;;;5051149;28;20151;-57
2022/03/01 07:31:34;;;;;;;22.92;13.68;;;;;;;;;;5049639;28;20419;-57
2022/03/01 07:33:59;;;;;;;20.33;14.38;;;;;;;;;;5052276;28;20099;-57
2022/03/01 07:36:24;;;;;;;16.42;11.73;;;;;;;;;;5050422;28;20017;-58
2022/03/01 07:38:49;;;;;;;14.88;12.00;;;;;;;;;;5052314;28;20108;-57
2022/03/01 07:41:15;;;;;;;20.88;13.73;;;;;;;;;;5051609;28;20029;-57
2022/03/01 07:43:40;;;;;;;16.65;13.88;;;;;;;;;;5050219;28;20041;-57
2022/03/01 07:46:10;;;;;;;17.58;13.75;;;;;;;;;;5051564;28;20044;-57
2022/03/01 07:48:36;;;;;;;19.75;13.70;;;;;;;;;;5050356;28;20037;-57
2022/03/01 07:51:01;;;;;;;20.13;14.75;;;;;;;;;;5050778;28;20369;-57
2022/03/01 07:53:26;;;;;;;20.00;14.13;;;;;;;;;;5050389;28;20047;-57
2022/03/01 07:55:51;;;;;;;24.25;15.05;;;;;;;;;;5052162;28;20048;-57
2022/03/01 07:58:17;;;;;;;25.88;14.85;;;;;;;;;;5049704;28;20064;-57
2022/03/01 08:00:42;;;;;;;16.25;13.57;;;;;;;;;;5051977;28;20375;-57
2022/03/01 08:03:08;;;;;;;18.77;13.70;;;;;;;;;;5049762;28;20108;-57
2022/03/01 08:05:33;;;;;;;25.53;14.93;;;;;;;;;;5039137;28;20018;-57
2022/03/01 08:07:58;;;;;;;15.45;13.50;;;;;;;;;;5049324;28;20578;-57
2022/03/01 08:10:24;;;;;;;16.90;13.65;;;;;;;;;;5058718;28;20395;-57
2022/03/01 08:12:49;;;;;;;15.45;12.20;;;;;;;;;;5069433;28;20032;-57
2022/03/01 08:15:14;;;;;;;18.30;14.00;;;;;;;;;;5071178;28;20459;-58
2022/03/01 08:17:47;;;;;;;19.13;13.77;;;;;;;;;;5069836;28;20077;-57
2022/03/01 08:20:12;;;;;;;14.75;11.20;;;;;;;;;;5070761;28;20427;-57
2022/03/01 08:22:37;;;;;;;18.10;13.40;;;;;;;;;;5061845;28;20606;-57
2022/03/01 08:25:02;;;;;;;19.65;14.43;;;;;;;;;;5051074;28;20106;-57
2022/03/01 08:27:27;;;;;;;19.35;13.40;;;;;;;;;;5049155;28;20036;-57
2022/03/01 08:29:52;;;;;;;17.23;13.03;;;;;;;;;;5050734;28;20024;-57
2022/03/01 08:32:18;;;;;;;14.93;12.15;;;;;;;;;;5049099;28;21023;-57
2022/03/01 08:34:43;;;;;;;16.20;11.18;;;;;;;;;;5050869;28;20021;-57
2022/03/01 08:37:08;;;;;;;16.38;13.48;;;;;;;;;;5049410;28;20039;-57
2022/03/01 08:39:33;;;;;;;16.35;13.57;;;;;;;;;;5051117;28;20423;-57
2022/03/01 08:41:58;;;;;;;13.93;10.85;;;;;;;;;;5048781;28;20029;-57
2022/03/01 08:44:24;;;;;;;19.42;12.90;;;;;;;;;;5051237;28;20048;-57
2022/03/01 08:46:49;;;;;;;16.37;12.57;;;;;;;;;;5049576;28;20087;-57
2022/03/01 08:49:14;;;;;;;18.30;14.43;;;;;;;;;;5050201;28;20108;-57
2022/03/01 08:51:39;;;;;;;20.80;14.57;;;;;;;;;;5049352;28;20440;-57
2022/03/01 08:54:05;;;;;;;16.90;13.17;;;;;;;;;;5049844;28;20469;-57
2022/03/01 08:56:30;;;;;;;15.85;13.00;;;;;;;;;;5048628;28;20047;-57
2022/03/01 08:58:55;;;;;;;19.80;13.57;;;;;;;;;;5050257;28;20079;-57
2022/03/01 09:01:20;;;;;;;19.90;13.25;;;;;;;;;;5049591;28;20029;-56
2022/03/01 09:03:46;;;;;;;19.90;14.93;;;;;;;;;;5050608;28;20017;-57
2022/03/01 09:06:11;;;;;;;17.80;12.83;;;;;;;;;;5060462;28;20074;-57
2022/03/01 09:08:40;;;;;;;15.75;13.63;;;;;;;;;;5056726;28;20037;-57
2022/03/01 09:11:06;;;;;;;16.33;13.50;;;;;;;;;;5066664;28;20063;-57
2022/03/01 09:13:31;;;;;;;18.60;13.50;;;;;;;;;;5052514;28;20025;-57
2022/03/01 09:15:56;;;;;;;22.08;15.55;;;;;;;;;;5063575;28;20025;-57
2022/03/01 09:18:22;;;;;;;20.83;12.85;;;;;;;;;;5059300;28;20033;-57
2022/03/01 09:20:47;;;;;;;13.70;11.87;;;;;;;;;;5056392;28;20032;-58
2022/03/01 09:23:13;;;;;;;22.08;12.82;;;;;;;;;;5064963;28;20470;-57
2022/03/01 09:25:38;;;;;;;16.98;11.90;;;;;;;;;;5054863;28;20024;-57
2022/03/01 09:28:03;;;;;;;18.83;14.02;;;;;;;;;;5060186;28;20167;-57
2022/03/01 09:30:29;;;;;;;23.67;14.73;;;;;;;;;;5061910;28;20044;-57
2022/03/01 09:32:54;;;;;;;17.23;14.43;;;;;;;;;;5054051;28;20529;-57
2022/03/01 09:35:21;;;;;;;16.30;13.38;;;;;;;;;;5066456;28;20013;-57
2022/03/01 09:37:46;;;;;;;17.92;14.70;;;;;;;;;;5054511;28;20094;-57
2022/03/01 09:40:11;;;;;;;16.70;12.27;;;;;;;;;;5061084;28;20550;-57
2022/03/01 09:42:37;;;;;;;19.58;12.75;;;;;;;;;;5060855;28;20557;-57
2022/03/01 09:45:02;;;;;;;18.55;12.80;;;;;;;;;;5054305;28;20357;-58
2022/03/01 09:47:27;;;;;;;18.10;12.70;;;;;;;;;;5065259;28;20037;-57
2022/03/01 09:49:53;;;;;;;16.65;13.15;;;;;;;;;;5056308;28;20013;-57
2022/03/01 09:52:19;;;;;;;17.77;12.00;;;;;;;;;;5058983;28;20499;-57
2022/03/01 09:54:45;;;;;;;18.20;14.60;;;;;;;;;;5063601;28;20046;-57
2022/03/01 09:57:14;;;;;;;17.50;13.15;;;;;;;;;;5051942;28;20081;-57
2022/03/01 09:59:39;;;;;;;;;;;;;;;;;;5066220;28;20050;-57
2022/03/01 10:02:04;;;;;;;19.00;14.32;;;;;;;;;;5046576;28;19909;-57
2022/03/01 10:04:29;;;;;;;17.20;11.93;;;;;;;;;;5048948;28;20044;-57
2022/03/01 10:06:54;;;;;;;20.30;12.30;;;;;;;;;;5051674;28;20102;-57
2022/03/01 10:09:23;;;;;;;23.42;14.52;;;;;;;;;;5064772;28;20091;-57
2022/03/01 10:11:48;;;;;;;14.20;11.55;;;;;;;;;;5071989;28;20032;-57
2022/03/01 10:14:14;;;;;;;18.73;13.93;;;;;;;;;;5073248;28;20099;-57
2022/03/01 10:16:41;;;;;;;18.95;13.02;;;;;;;;;;5057540;28;20550;-58
2022/03/01 10:19:24;;;;;;;26.52;13.85;;;;;;;;;;5069004;28;20036;-57
2022/03/01 10:22:00;;;;;;;17.77;12.98;;;;;;;;;;5060636;28;20307;-57
2022/03/01 10:24:25;;;;;;;16.95;12.27;;;;;;;;;;5058539;28;20504;-58
2022/03/01 10:26:54;;;;;;;16.85;11.88;;;;;;;;;;5067891;28;20094;-57
2022/03/01 10:29:25;;;;;;;19.58;13.07;;;;;;;;;;5058615;28;20039;-57
2022/03/01 10:31:52;;;;;;;20.30;13.57;;;;;;;;;;5062124;28;20173;-57
2022/03/01 10:34:17;;;;;;;18.25;13.93;;;;;;;;;;5066809;28;20044;-57
2022/03/01 10:36:47;;;;;;;17.45;12.60;;;;;;;;;;5055439;28;20106;-57
2022/03/01 10:39:14;;;;;;;23.88;15.43;;;;;;;;;;5068048;28;20021;-57
2022/03/01 10:41:40;;;;;;;22.88;13.48;;;;;;;;;;5059588;28;20039;-57
2022/03/01 10:44:06;;;;;;;46.05;17.77;;;;;;;;;;5060734;28;20036;-57
2022/03/01 10:46:37;;;;;;;17.75;12.77;;;;;;;;;;5066887;28;20028;-57
2022/03/01 10:49:10;;;;;;;18.50;13.45;;;;;;;;;;5055557;28;20047;-57
2022/03/01 10:51:52;;;;;;;15.68;13.18;;;;;;;;;;5063686;28;20017;-57
2022/03/01 10:54:27;;;;;;;14.07;11.68;;;;;;;;;;5066223;28;20013;-57
2022/03/01 10:56:55;;;;;;;18.50;13.57;;;;;;;;;;5054559;28;20400;-57
2022/03/01 10:59:21;;;;;;;19.38;14.90;;;;;;;;;;5059719;28;20035;-57
2022/03/01 11:01:46;;;;;;;15.85;12.00;;;;;;;;;;5051333;28;20029;-57
2022/03/01 11:04:11;;;;;;;20.23;13.70;;;;;;;;;;5052354;28;20349;-57
2022/03/01 11:06:37;;;;;;;20.05;14.85;;;;;;;;;;5051351;28;20028;-57
2022/03/01 11:09:02;;;;;;;18.67;15.00;;;;;;;;;;5052389;28;20021;-57
2022/03/01 11:11:29;;;;;;;24.70;14.05;;;;;;;;;;5039399;28;20099;-57
2022/03/01 11:13:56;;;;;;;20.33;13.20;;;;;;;;;;5050670;28;20013;-57
2022/03/01 11:16:39;;;;;;;17.25;13.80;;;;;;;;;;5050747;28;20071;-57
2022/03/01 11:19:23;;;;;;;13.63;11.98;;;;;;;;;;5040170;28;20029;-57
2022/03/01 11:21:49;;;;;;;22.08;16.17;;;;;;;;;;5032253;28;20045;-57
2022/03/01 11:24:16;;;;;;;19.67;13.57;;;;;;;;;;5030510;28;20559;-57
2022/03/01 11:26:41;;;;;;;18.38;13.88;;;;;;;;;;5037250;28;20088;-56
2022/03/01 11:29:08;;;;;;;17.58;13.02;;;;;;;;;;5050659;28;20017;-57
2022/03/01 11:31:34;;;;;;;25.85;14.20;;;;;;;;;;5048598;28;20546;-57
2022/03/01 11:34:00;;;;;;;17.20;13.40;;;;;;;;;;5046840;28;20017;-57
2022/03/01 11:36:27;;;;;;;23.50;14.52;;;;;;;;;;5037102;28;20092;-57
2022/03/01 11:38:52;;;;;;;20.63;15.45;;;;;;;;;;5051870;28;20033;-57
2022/03/01 11:41:22;;;;;;;18.17;11.80;;;;;;;;;;5050304;28;20075;-56
2022/03/01 11:43:52;;;;;;;19.33;13.90;;;;;;;;;;5046683;28;20013;-57
2022/03/01 11:46:18;;;;;;;18.50;13.65;;;;;;;;;;5032488;28;20021;-57
2022/03/01 11:48:45;;;;;;;19.58;13.82;;;;;;;;;;5029658;28;20120;-57
2022/03/01 11:51:10;;;;;;;19.55;14.75;;;;;;;;;;5031559;28;20026;-57
2022/03/01 11:53:37;;;;;;;18.73;13.50;;;;;;;;;;5030094;28;20039;-57
2022/03/01 11:56:03;;;;;;;16.85;12.90;;;;;;;;;;5031311;28;20071;-57
2022/03/01 11:58:30;;;;;;;20.13;14.48;;;;;;;;;;5029847;28;20435;-57
2022/03/01 12:00:56;;;;;;;16.90;12.48;;;;;;;;;;5031516;28;20384;-57
2022/03/01 12:03:22;;;;;;;22.10;14.75;;;;;;;;;;5029653;28;20038;-57
2022/03/01 12:05:48;;;;;;;23.15;12.43;;;;;;;;;;5031391;28;20032;-57
2022/03/01 12:08:14;;;;;;;19.10;14.93;;;;;;;;;;5029532;28;20033;-57
2022/03/01 12:10:50;;;;;;;18.88;12.15;;;;;;;;;;5031056;28;20392;-57
2022/03/01 12:13:15;;;;;;;23.75;16.20;;;;;;;;;;5029682;28;20488;-57
2022/03/01 12:15:41;;;;;;;26.13;14.07;;;;;;;;;;5031573;28;20041;-57
2022/03/01 12:18:14;;;;;;;18.75;12.07;;;;;;;;;;5029254;28;20519;-57
2022/03/01 12:20:41;;;;;;;30.13;16.23;;;;;;;;;;5031062;28;20029;-57
2022/03/01 12:23:06;;;;;;;22.83;14.98;;;;;;;;;;5029170;28;20054;-57
2022/03/01 12:25:33;;;;;;;20.38;15.82;;;;;;;;;;5031158;28;20560;-57
2022/03/01 12:28:00;;;;;;;24.60;16.90;;;;;;;;;;5028384;28;20037;-57
2022/03/01 12:30:25;;;;;;;20.48;14.57;;;;;;;;;;5030795;28;20024;-57
2022/03/01 12:32:51;;;;;;;18.55;15.73;;;;;;;;;;5029293;28;20038;-57
2022/03/01 12:35:17;;;;;;;20.50;15.13;;;;;;;;;;5036397;28;20092;-57
2022/03/01 12:37:42;;;;;;;25.63;13.55;;;;;;;;;;5049860;28;20132;-57
2022/03/01 12:40:07;;;;;;;21.37;14.70;;;;;;;;;;5051598;28;20017;-57
2022/03/01 12:42:35;;;;;;;22.48;14.40;;;;;;;;;;5069167;28;20119;-57
2022/03/01 12:45:00;;;;;;;19.58;13.05;;;;;;;;;;5070376;28;20021;-57
2022/03/01 12:47:25;;;;;;;16.60;13.32;;;;;;;;;;5049574;28;20051;-57
2022/03/01 12:49:50;;;;;;;17.35;13.57;;;;;;;;;;5050564;28;20025;-57
2022/03/01 12:52:20;;;;;;;21.38;13.48;;;;;;;;;;5049752;28;20021;-57
2022/03/01 12:54:47;;;;;;;19.73;14.60;;;;;;;;;;5054344;28;20066;-57
2022/03/01 12:57:13;;;;;;;18.13;14.23;;;;;;;;;;5050169;28;20056;-57
2022/03/01 12:59:39;;;;;;;20.10;14.10;;;;;;;;;;5067021;28;20379;-57
2022/03/01 13:02:06;;;;;;;21.02;13.93;;;;;;;;;;5054370;28;20059;-57
2022/03/01 13:04:32;;;;;;;22.15;15.65;;;;;;;;;;5060966;28;20029;-57
2022/03/01 13:06:57;;;;;;;23.95;14.77;;;;;;;;;;5061426;28;20393;-57
2022/03/01 13:09:23;;;;;;;17.48;12.63;;;;;;;;;;5048608;28;20025;-57
2022/03/01 13:11:48;;;;;;;18.17;13.45;;;;;;;;;;5065260;28;20033;-57
2022/03/01 13:14:16;;;;;;;23.48;14.30;;;;;;;;;;5057008;28;20456;-57
2022/03/01 13:16:43;;;;;;;24.40;15.05;;;;;;;;;;5057793;28;20033;-57
2022/03/01 13:19:15;;;;;;;18.77;13.35;;;;;;;;;;5064143;28;20021;-57
2022/03/01 13:21:44;;;;;;;21.40;14.00;;;;;;;;;;5052271;28;20033;-57
2022/03/01 13:24:12;;;;;;;20.60;11.88;;;;;;;;;;5063591;28;20041;-57
2022/03/01 13:26:37;;;;;;;18.23;13.48;;;;;;;;;;5058755;28;20020;-57
2022/03/01 13:29:08;;;;;;;20.98;16.33;;;;;;;;;;5056002;28;20058;-57
2022/03/01 13:31:33;;;;;;;20.48;12.80;;;;;;;;;;5064911;28;20074;-57
2022/03/01 13:34:00;;;;;;;20.53;13.80;;;;;;;;;;5054600;28;20005;-57
2022/03/01 13:36:26;;;;;;;30.38;16.20;;;;;;;;;;5060067;28;20456;-57
2022/03/01 13:38:56;;;;;;;21.92;13.88;;;;;;;;;;5062989;28;20017;-57
2022/03/01 13:41:25;;;;;;;19.05;14.65;;;;;;;;;;5056072;28;20059;-57
2022/03/01 13:43:50;;;;;;;27.15;16.75;;;;;;;;;;5034350;28;20143;-57
2022/03/01 13:46:15;;;;;;;25.52;15.52;;;;;;;;;;5033456;28;20464;-57
2022/03/01 13:48:41;;;;;;;21.02;15.35;;;;;;;;;;5032212;28;20041;-57
2022/03/01 13:51:07;;;;;;;23.05;14.35;;;;;;;;;;5033666;28;20009;-57
2022/03/01 13:53:32;;;;;;;20.77;14.15;;;;;;;;;;5032194;28;20041;-57
2022/03/01 13:55:57;;;;;;;22.25;15.68;;;;;;;;;;5033601;28;20029;-58
2022/03/01 13:58:24;;;;;;;20.92;14.38;;;;;;;;;;5032140;28;20439;-57
2022/03/01 14:00:50;;;;;;;21.17;14.30;;;;;;;;;;5033598;28;20022;-57
2022/03/01 14:03:17;;;;;;;18.52;13.13;;;;;;;;;;5031854;28;20551;-57
2022/03/01 14:05:46;;;;;;;26.80;15.80;;;;;;;;;;5038425;28;20499;-57
2022/03/01 14:08:15;;;;;;;18.40;13.73;;;;;;;;;;5050659;28;20064;-57
2022/03/01 14:11:00;;;;;;;21.50;13.80;;;;;;;;;;5053018;28;20040;-57